createdAt,value
2019-05-02T00:01:14.338Z,76.20
2019-05-02T00:03:43.760Z,76.20
2019-05-02T00:06:13.565Z,76.10
2019-05-02T00:08:42.922Z,76.10
2019-05-02T00:11:12.411Z,76.10
2019-05-02T00:13:53.993Z,76.20
2019-05-02T00:16:35.819Z,76.30
2019-05-02T00:19:09.052Z,76.40
2019-05-02T00:21:38.209Z,76.30
2019-05-02T00:24:09.968Z,76.10
2019-05-02T00:26:39.366Z,76.10
2019-05-02T00:29:08.994Z,76.20
2019-05-02T00:31:41.876Z,76.10
2019-05-02T00:34:09.520Z,76.10
2019-05-02T00:36:38.985Z,76.10
2019-05-02T00:39:09.522Z,76.10
2019-05-02T00:41:40.461Z,75.80
2019-05-02T00:44:11.045Z,75.50
2019-05-02T00:46:41.127Z,75.40
2019-05-02T00:49:10.530Z,75.30
2019-05-02T00:51:39.978Z,75.40
2019-05-02T00:54:09.365Z,75.40
2019-05-02T00:56:40.237Z,75.30
2019-05-02T00:59:10.811Z,75.40
2019-05-02T01:01:44.792Z,75.60
2019-05-02T01:04:15.823Z,75.70
2019-05-02T01:06:49.315Z,75.90
2019-05-02T01:09:16.269Z,76.30
2019-05-02T01:11:45.708Z,76.40
2019-05-02T01:14:15.060Z,76.90
2019-05-02T01:16:44.438Z,77.00
2019-05-02T01:19:16.152Z,77.10
2019-05-02T01:21:44.909Z,77.20
2019-05-02T01:24:14.259Z,77.20
2019-05-02T01:26:45.355Z,77.30
2019-05-02T01:29:16.576Z,77.30
2019-05-02T01:31:59.657Z,77.40
2019-05-02T01:34:30.691Z,77.30
2019-05-02T01:37:01.727Z,77.30
2019-05-02T01:39:31.187Z,77.30
2019-05-02T01:42:04.234Z,77.10
2019-05-02T01:44:36.489Z,77.20
2019-05-02T01:47:02.624Z,77.10
2019-05-02T01:49:32.000Z,77.00
2019-05-02T01:52:01.430Z,76.70
2019-05-02T01:54:30.757Z,76.70
2019-05-02T01:57:03.888Z,76.40
2019-05-02T01:59:33.800Z,76.30
2019-05-02T02:02:02.243Z,76.30
2019-05-02T02:04:31.721Z,76.30
2019-05-02T02:07:01.165Z,76.40
2019-05-02T02:09:30.631Z,76.50
2019-05-02T02:12:00.010Z,76.60
2019-05-02T02:14:29.405Z,76.50
2019-05-02T02:16:58.781Z,76.70
2019-05-02T02:19:41.771Z,76.80
2019-05-02T02:22:13.204Z,77.00
2019-05-02T02:24:44.230Z,77.20
2019-05-02T02:27:13.678Z,77.40
2019-05-02T02:29:43.931Z,77.60
2019-05-02T02:32:20.143Z,77.90
2019-05-02T02:34:45.217Z,78.00
2019-05-02T02:37:15.118Z,78.30
2019-05-02T02:39:48.591Z,78.40
2019-05-02T02:42:15.796Z,78.50
2019-05-02T02:44:52.902Z,78.50
2019-05-02T02:47:22.361Z,78.50
2019-05-02T02:49:56.101Z,78.50
2019-05-02T02:52:22.749Z,78.50
2019-05-02T02:54:52.166Z,78.60
2019-05-02T02:57:26.506Z,78.70
2019-05-02T02:59:52.871Z,78.60
2019-05-02T03:02:22.254Z,78.60
2019-05-02T03:04:51.631Z,78.80
2019-05-02T03:07:25.990Z,78.80
2019-05-02T03:09:52.049Z,79.00
2019-05-02T03:12:23.082Z,78.90
2019-05-02T03:14:57.414Z,79.00
2019-05-02T03:17:28.669Z,79.00
2019-05-02T03:20:01.177Z,79.10
2019-05-02T03:22:34.981Z,79.10
2019-05-02T03:24:59.887Z,79.20
2019-05-02T03:27:42.136Z,79.30
2019-05-02T03:30:29.236Z,79.40
2019-05-02T03:33:02.991Z,79.60
2019-05-02T03:35:18.452Z,79.60
2019-05-02T03:37:50.785Z,79.80
2019-05-02T03:40:15.551Z,79.70
2019-05-02T03:42:47.697Z,79.80
2019-05-02T03:45:16.068Z,80.10
2019-05-02T03:47:46.591Z,80.00
2019-05-02T03:50:16.197Z,79.90
2019-05-02T03:52:46.560Z,79.80
2019-05-02T03:55:15.449Z,80.10
2019-05-02T03:57:44.730Z,80.30
2019-05-02T04:00:21.367Z,80.30
2019-05-02T04:02:45.158Z,80.50
2019-05-02T04:05:14.550Z,80.50
2019-05-02T04:07:43.905Z,80.60
2019-05-02T04:10:20.232Z,80.60
2019-05-02T04:12:46.114Z,80.60
2019-05-02T04:15:15.580Z,80.50
2019-05-02T04:17:44.975Z,80.50
2019-05-02T04:20:14.356Z,80.70
2019-05-02T04:22:49.012Z,80.70
2019-05-02T04:25:14.859Z,80.50
2019-05-02T04:27:44.203Z,80.50
2019-05-02T04:30:14.324Z,80.20
2019-05-02T04:32:49.885Z,80.20
2019-05-02T04:35:15.060Z,80.00
2019-05-02T04:37:44.586Z,80.10
2019-05-02T04:40:14.041Z,80.10
2019-05-02T04:42:43.512Z,80.20
2019-05-02T04:45:24.929Z,79.80
2019-05-02T04:47:57.484Z,79.80
2019-05-02T04:50:24.787Z,79.60
2019-05-02T04:52:52.482Z,79.60
2019-05-02T04:55:26.191Z,79.70
2019-05-02T04:57:50.874Z,79.50
2019-05-02T05:00:22.401Z,79.30
2019-05-02T05:02:53.216Z,79.10
2019-05-02T05:05:25.625Z,78.90
2019-05-02T05:07:54.019Z,78.70
2019-05-02T05:10:23.551Z,78.70
2019-05-02T05:12:53.002Z,78.70
2019-05-02T05:15:35.959Z,78.80
2019-05-02T05:17:53.413Z,78.60
2019-05-02T05:20:22.797Z,78.60
2019-05-02T05:22:52.194Z,78.30
2019-05-02T05:25:27.812Z,78.10
2019-05-02T05:28:05.313Z,78.00
2019-05-02T05:30:29.423Z,77.90
2019-05-02T05:32:58.852Z,77.80
2019-05-02T05:35:28.305Z,77.60
2019-05-02T05:37:57.730Z,77.30
2019-05-02T05:40:30.334Z,77.00
2019-05-02T05:43:02.118Z,76.60
2019-05-02T05:45:29.214Z,76.20
2019-05-02T05:48:01.080Z,76.10
2019-05-02T05:50:32.171Z,75.90
2019-05-02T05:53:00.676Z,75.30
2019-05-02T05:55:31.634Z,74.90
2019-05-02T05:58:11.839Z,74.70
2019-05-02T06:00:32.266Z,74.90
2019-05-02T06:03:10.921Z,74.60
2019-05-02T06:05:33.136Z,74.40
2019-05-02T06:08:03.701Z,74.50
2019-05-02T06:10:33.188Z,74.20
2019-05-02T06:13:05.364Z,74.00
2019-05-02T06:15:33.940Z,73.80
2019-05-02T06:18:04.992Z,73.50
2019-05-02T06:20:35.923Z,73.40
2019-05-02T06:23:05.298Z,73.00
2019-05-02T06:25:36.728Z,73.10
2019-05-02T06:28:06.844Z,72.70
2019-05-02T06:30:35.672Z,71.80
2019-05-02T06:33:04.990Z,72.40
2019-05-02T06:35:34.378Z,72.00
2019-05-02T06:38:03.767Z,71.20
2019-05-02T06:40:33.154Z,70.90
2019-05-02T06:43:04.453Z,70.70
2019-05-02T06:45:37.731Z,70.80
2019-05-02T06:48:04.807Z,70.40
2019-05-02T06:50:38.924Z,70.40
2019-05-02T06:53:09.611Z,70.00
2019-05-02T06:55:38.759Z,69.70
2019-05-02T06:58:08.284Z,69.40
2019-05-02T07:00:55.892Z,69.00
2019-05-02T07:03:10.120Z,68.70
2019-05-02T07:05:41.765Z,68.50
2019-05-02T07:08:13.562Z,67.90
2019-05-02T07:10:44.765Z,67.80
2019-05-02T07:13:15.160Z,67.50
2019-05-02T07:15:48.476Z,67.30
2019-05-02T07:18:18.799Z,66.90
2019-05-02T07:20:48.150Z,66.20
2019-05-02T07:23:18.630Z,66.10
2019-05-02T07:25:47.392Z,65.90
2019-05-02T07:28:16.848Z,65.20
2019-05-02T07:30:46.568Z,64.80
2019-05-02T07:33:16.182Z,64.50
2019-05-02T07:35:45.841Z,64.60
2019-05-02T07:38:15.363Z,63.90
2019-05-02T07:40:48.099Z,62.90
2019-05-02T07:43:20.997Z,61.90
2019-05-02T07:45:47.115Z,61.60
2019-05-02T07:48:17.741Z,61.00
2019-05-02T07:50:48.161Z,60.60
2019-05-02T07:53:17.868Z,60.30
2019-05-02T07:55:49.088Z,59.80
2019-05-02T07:58:18.339Z,59.40
2019-05-02T08:00:47.820Z,59.20
2019-05-02T08:03:18.452Z,59.00
2019-05-02T08:05:48.002Z,58.80
2019-05-02T08:08:17.412Z,59.00
2019-05-02T08:10:46.905Z,58.40
2019-05-02T08:13:17.457Z,58.60
2019-05-02T08:15:50.898Z,58.50
2019-05-02T08:18:18.431Z,58.10
2019-05-02T08:20:51.046Z,57.70
2019-05-02T08:23:20.532Z,57.40
2019-05-02T08:25:50.247Z,57.50
2019-05-02T08:28:21.273Z,57.50
2019-05-02T08:30:52.365Z,56.60
2019-05-02T08:33:21.868Z,57.00
2019-05-02T08:35:51.295Z,56.80
2019-05-02T08:38:20.856Z,56.70
2019-05-02T08:41:09.745Z,56.40
2019-05-02T08:43:40.106Z,55.60
2019-05-02T08:46:14.446Z,55.30
2019-05-02T08:48:42.251Z,55.40
2019-05-02T08:51:12.367Z,55.50
2019-05-02T08:53:41.800Z,55.20
2019-05-02T08:56:11.193Z,54.60
2019-05-02T08:58:44.980Z,54.30
2019-05-02T09:01:13.674Z,54.40
2019-05-02T09:03:55.287Z,54.90
2019-05-02T09:06:17.243Z,54.40
2019-05-02T09:08:46.150Z,54.60
2019-05-02T09:11:15.951Z,54.70
2019-05-02T09:13:46.110Z,54.40
2019-05-02T09:16:15.637Z,54.20
2019-05-02T09:18:50.912Z,53.80
2019-05-02T09:21:16.081Z,53.60
2019-05-02T09:23:47.090Z,53.10
2019-05-02T09:26:16.586Z,53.50
2019-05-02T09:28:47.624Z,53.30
2019-05-02T09:31:17.107Z,53.00
2019-05-02T09:33:47.619Z,52.60
2019-05-02T09:36:16.984Z,52.70
2019-05-02T09:38:48.724Z,51.90
2019-05-02T09:41:19.483Z,51.80
2019-05-02T09:43:48.494Z,51.90
2019-05-02T09:46:17.988Z,51.30
2019-05-02T09:48:47.358Z,51.10
2019-05-02T09:51:17.598Z,51.00
2019-05-02T09:53:47.146Z,50.60
2019-05-02T09:56:16.534Z,50.30
2019-05-02T09:58:49.201Z,50.30
2019-05-02T10:01:19.053Z,51.00
2019-05-02T10:03:48.448Z,50.70
2019-05-02T10:06:18.338Z,49.80
2019-05-02T10:08:47.806Z,49.70
2019-05-02T10:11:21.807Z,49.70
2019-05-02T10:13:48.285Z,50.20
2019-05-02T10:16:17.976Z,49.70
2019-05-02T10:18:52.133Z,50.00
2019-05-02T10:21:22.658Z,49.70
2019-05-02T10:23:59.157Z,49.40
2019-05-02T10:26:24.423Z,48.80
2019-05-02T10:28:53.887Z,48.10
2019-05-02T10:31:27.482Z,48.60
2019-05-02T10:33:54.333Z,48.30
2019-05-02T10:36:24.101Z,47.80
2019-05-02T10:38:58.859Z,48.50
2019-05-02T10:41:24.610Z,47.70
2019-05-02T10:44:21.969Z,47.10
2019-05-02T10:47:00.116Z,46.80
2019-05-02T10:49:32.049Z,46.10
2019-05-02T10:52:02.657Z,46.10
2019-05-02T10:54:33.771Z,44.80
2019-05-02T10:57:03.401Z,44.50
2019-05-02T10:59:32.923Z,43.50
2019-05-02T11:02:04.040Z,42.60
2019-05-02T11:04:35.164Z,42.00
2019-05-02T11:07:04.608Z,40.80
2019-05-02T11:09:34.112Z,40.50
2019-05-02T11:12:05.132Z,40.50
2019-05-02T11:14:39.031Z,40.50
2019-05-02T11:17:17.289Z,40.10
2019-05-02T11:19:48.848Z,39.10
2019-05-02T11:22:18.229Z,38.30
2019-05-02T11:24:47.625Z,38.70
2019-05-02T11:27:17.079Z,38.80
2019-05-02T11:30:06.477Z,38.30
2019-05-02T11:32:35.938Z,37.70
2019-05-02T11:35:06.955Z,37.50
2019-05-02T11:37:36.402Z,37.30
2019-05-02T11:40:07.772Z,36.40
2019-05-02T11:42:37.686Z,36.70
2019-05-02T11:45:07.346Z,36.90
2019-05-02T11:47:36.733Z,36.90
2019-05-02T11:50:06.489Z,37.50
2019-05-02T11:52:37.344Z,39.20
2019-05-02T11:55:07.430Z,38.60
2019-05-02T11:57:36.805Z,38.20
2019-05-02T12:00:09.068Z,38.30
2019-05-02T12:02:43.082Z,38.80
2019-05-02T12:05:22.093Z,38.00
2019-05-02T12:07:52.643Z,37.80
2019-05-02T12:10:22.170Z,36.60
2019-05-02T12:12:52.711Z,36.00
2019-05-02T12:15:22.215Z,36.00
2019-05-02T12:17:51.752Z,35.90
2019-05-02T12:20:22.790Z,35.10
2019-05-02T12:22:52.857Z,34.80
2019-05-02T12:25:22.405Z,35.10
2019-05-02T12:27:52.666Z,35.60
2019-05-02T12:30:22.856Z,35.60
2019-05-02T12:32:53.958Z,35.50
2019-05-02T12:35:23.731Z,35.90
2019-05-02T12:37:55.127Z,35.30
2019-05-02T12:40:24.018Z,35.10
2019-05-02T12:42:53.428Z,34.30
2019-05-02T12:45:22.818Z,35.00
2019-05-02T12:47:52.338Z,35.30
2019-05-02T12:50:22.591Z,35.30
2019-05-02T12:52:52.486Z,34.70
2019-05-02T12:55:23.190Z,33.90
2019-05-02T12:57:52.961Z,34.20
2019-05-02T13:00:22.406Z,33.80
2019-05-02T13:02:59.481Z,33.60
2019-05-02T13:05:28.869Z,33.10
2019-05-02T13:07:58.245Z,33.90
2019-05-02T13:10:32.716Z,34.10
2019-05-02T13:13:02.787Z,34.60
2019-05-02T13:15:32.942Z,34.10
2019-05-02T13:18:03.044Z,33.90
2019-05-02T13:20:36.600Z,34.60
2019-05-02T13:23:05.759Z,33.80
2019-05-02T13:25:36.869Z,33.90
2019-05-02T13:28:06.196Z,34.20
2019-05-02T13:30:45.284Z,34.20
2019-05-02T13:33:13.119Z,33.90
2019-05-02T13:35:44.186Z,32.80
2019-05-02T13:38:15.232Z,32.60
2019-05-02T13:40:44.863Z,33.30
2019-05-02T13:43:14.367Z,32.80
2019-05-02T13:45:45.400Z,33.00
2019-05-02T13:48:14.792Z,33.30
2019-05-02T13:50:44.247Z,33.50
2019-05-02T13:53:13.773Z,33.70
2019-05-02T13:55:48.169Z,33.60
2019-05-02T13:58:21.588Z,34.20
2019-05-02T14:00:49.918Z,33.90
2019-05-02T14:03:19.326Z,33.80
2019-05-02T14:05:51.168Z,33.90
2019-05-02T14:08:36.815Z,34.40
2019-05-02T14:11:06.373Z,34.50
2019-05-02T14:13:36.253Z,35.10
2019-05-02T14:16:05.595Z,35.20
2019-05-02T14:18:36.127Z,34.70
2019-05-02T14:21:05.515Z,34.90
2019-05-02T14:23:34.900Z,34.70
2019-05-02T14:26:04.277Z,34.80
2019-05-02T14:28:36.321Z,35.40
2019-05-02T14:31:04.877Z,35.90
2019-05-02T14:33:35.975Z,37.10
2019-05-02T14:36:05.373Z,36.70
2019-05-02T14:38:34.808Z,36.50
2019-05-02T14:41:05.845Z,36.30
2019-05-02T14:43:53.157Z,36.90
2019-05-02T14:46:28.881Z,36.50
2019-05-02T14:48:56.062Z,36.20
2019-05-02T14:51:27.701Z,36.70
2019-05-02T14:53:57.551Z,36.70
2019-05-02T14:56:47.682Z,36.70
2019-05-02T14:59:19.895Z,37.30
2019-05-02T15:01:49.653Z,37.50
2019-05-02T15:04:19.037Z,37.80
2019-05-02T15:06:48.467Z,37.90
2019-05-02T15:09:22.539Z,37.10
2019-05-02T15:11:58.344Z,37.00
2019-05-02T15:14:30.275Z,37.60
2019-05-02T15:17:02.538Z,37.60
2019-05-02T15:19:32.967Z,38.00
2019-05-02T15:22:02.703Z,38.00
2019-05-02T15:24:37.564Z,38.10
2019-05-02T15:27:10.980Z,38.20
2019-05-02T15:29:34.106Z,38.00
2019-05-02T15:32:22.016Z,38.40
2019-05-02T15:35:03.159Z,38.50
2019-05-02T15:37:35.632Z,38.60
2019-05-02T15:42:36.621Z,39.00
2019-05-02T15:45:07.707Z,39.50
2019-05-02T15:47:41.464Z,39.60
2019-05-02T15:50:08.118Z,39.10
2019-05-02T15:52:39.142Z,39.10
2019-05-02T15:55:08.521Z,38.90
2019-05-02T15:57:43.106Z,38.80
2019-05-02T16:00:10.557Z,38.60
2019-05-02T16:02:41.784Z,38.60
2019-05-02T16:05:11.863Z,38.70
2019-05-02T16:07:43.386Z,38.80
2019-05-02T16:10:13.115Z,38.70
2019-05-02T16:12:45.333Z,39.00
2019-05-02T16:15:21.459Z,40.10
2019-05-02T16:17:45.778Z,39.90
2019-05-02T16:20:17.242Z,40.00
2019-05-02T16:22:49.818Z,39.60
2019-05-02T16:25:19.938Z,39.70
2019-05-02T16:27:51.147Z,39.60
2019-05-02T16:30:22.567Z,39.70
2019-05-02T16:32:58.797Z,40.00
2019-05-02T16:35:29.816Z,39.50
2019-05-02T16:37:59.270Z,39.50
2019-05-02T16:40:32.156Z,39.80
2019-05-02T16:42:59.710Z,40.10
2019-05-02T16:45:29.179Z,40.30
2019-05-02T16:48:00.333Z,40.30
2019-05-02T16:50:35.249Z,39.90
2019-05-02T16:53:02.259Z,39.60
2019-05-02T16:55:32.699Z,39.50
2019-05-02T16:58:06.987Z,39.60
2019-05-02T17:00:37.046Z,39.70
2019-05-02T17:03:04.757Z,39.80
2019-05-02T17:05:34.250Z,39.60
2019-05-02T17:08:10.862Z,39.30
2019-05-02T17:10:42.233Z,39.30
2019-05-02T17:13:12.619Z,39.40
2019-05-02T17:16:12.995Z,39.50
2019-05-02T17:18:37.707Z,39.50
2019-05-02T17:21:07.089Z,39.60
2019-05-02T17:23:37.373Z,39.70
2019-05-02T17:26:07.883Z,40.20
2019-05-02T17:28:38.035Z,40.60
2019-05-02T17:31:10.811Z,40.80
2019-05-02T17:33:39.487Z,41.30
2019-05-02T17:36:08.898Z,42.00
2019-05-02T17:38:38.260Z,42.40
2019-05-02T17:41:08.091Z,42.50
2019-05-02T17:43:42.235Z,42.40
2019-05-02T17:46:12.723Z,43.10
2019-05-02T17:48:42.872Z,42.60
2019-05-02T17:51:35.784Z,43.10
2019-05-02T17:54:02.947Z,43.40
2019-05-02T17:56:32.626Z,43.40
2019-05-02T17:59:02.260Z,43.40
2019-05-02T18:01:35.058Z,43.40
2019-05-02T18:04:06.879Z,43.90
2019-05-02T18:06:35.803Z,44.00
2019-05-02T18:09:06.799Z,44.00
2019-05-02T18:11:37.902Z,43.90
2019-05-02T18:14:16.093Z,43.90
2019-05-02T18:16:39.463Z,44.40
2019-05-02T18:19:09.146Z,44.50
2019-05-02T18:21:38.451Z,44.50
2019-05-02T18:24:07.943Z,44.50
2019-05-02T18:26:37.397Z,44.70
2019-05-02T18:29:07.081Z,44.90
2019-05-02T18:31:40.137Z,45.40
2019-05-02T18:34:14.347Z,45.90
2019-05-02T18:36:38.791Z,46.00
2019-05-02T18:39:08.536Z,46.40
2019-05-02T18:41:42.747Z,46.60
2019-05-02T18:44:11.704Z,46.70
2019-05-02T18:46:42.617Z,47.20
2019-05-02T18:49:12.457Z,47.20
2019-05-02T18:51:42.345Z,47.30
2019-05-02T18:54:12.202Z,47.40
2019-05-02T18:56:49.066Z,47.30
2019-05-02T18:59:14.186Z,47.70
2019-05-02T19:01:47.431Z,47.70
2019-05-02T19:04:15.115Z,47.30
2019-05-02T19:06:44.515Z,47.20
2019-05-02T19:09:17.412Z,47.20
2019-05-02T19:11:44.923Z,47.60
2019-05-02T19:14:16.684Z,48.10
2019-05-02T19:16:45.356Z,48.20
2019-05-02T19:19:36.862Z,48.30
2019-05-02T19:22:07.361Z,48.20
2019-05-02T19:24:36.611Z,48.40
2019-05-02T19:27:06.581Z,48.40
2019-05-02T19:29:35.966Z,48.60
2019-05-02T19:32:06.609Z,49.20
2019-05-02T19:34:36.074Z,49.70
2019-05-02T19:37:05.387Z,50.20
2019-05-02T19:39:39.072Z,50.40
2019-05-02T19:42:05.851Z,50.30
2019-05-02T19:44:35.343Z,50.50
2019-05-02T19:47:08.418Z,50.60
2019-05-02T19:49:35.756Z,50.70
2019-05-02T19:52:05.626Z,51.00
2019-05-02T19:54:39.332Z,51.10
2019-05-02T19:57:06.145Z,51.50
2019-05-02T19:59:35.548Z,51.80
2019-05-02T20:02:06.255Z,52.10
2019-05-02T20:04:37.798Z,52.30
2019-05-02T20:07:06.887Z,53.20
2019-05-02T20:09:38.086Z,53.40
2019-05-02T20:12:10.585Z,53.20
2019-05-02T20:14:43.629Z,53.20
2019-05-02T20:17:09.770Z,53.10
2019-05-02T20:19:42.219Z,53.40
2019-05-02T20:22:13.393Z,53.80
2019-05-02T20:24:59.994Z,54.10
2019-05-02T20:27:27.753Z,54.70
2019-05-02T20:29:55.855Z,55.20
2019-05-02T20:32:25.288Z,55.70
2019-05-02T20:34:54.767Z,56.20
2019-05-02T20:37:24.836Z,56.80
2019-05-02T20:39:54.215Z,57.10
2019-05-02T20:42:23.612Z,57.70
2019-05-02T20:44:53.045Z,58.30
2019-05-02T20:47:23.451Z,58.80
2019-05-02T20:49:52.338Z,59.10
2019-05-02T20:52:22.108Z,59.50
2019-05-02T20:54:52.605Z,59.60
2019-05-02T20:57:21.973Z,59.70
2019-05-02T20:59:52.542Z,60.10
2019-05-02T21:02:22.231Z,60.60
2019-05-02T21:04:53.008Z,61.00
2019-05-02T21:07:33.292Z,61.30
2019-05-02T21:10:07.482Z,62.20
2019-05-02T21:12:36.880Z,63.00
2019-05-02T21:15:06.523Z,64.60
2019-05-02T21:17:36.050Z,64.60
2019-05-02T21:20:06.766Z,65.00
2019-05-02T21:22:36.223Z,66.40
2019-05-02T21:25:06.879Z,66.00
2019-05-02T21:27:36.295Z,66.10
2019-05-02T21:30:09.032Z,66.10
2019-05-02T21:32:39.544Z,66.70
2019-05-02T21:35:09.010Z,67.10
2019-05-02T21:37:38.473Z,67.10
2019-05-02T21:40:07.919Z,67.40
2019-05-02T21:42:37.311Z,67.70
2019-05-02T21:45:06.753Z,67.60
2019-05-02T21:47:36.142Z,68.40
2019-05-02T21:50:21.737Z,68.20
2019-05-02T21:53:09.034Z,68.40
2019-05-02T21:55:40.136Z,69.70
2019-05-02T21:58:09.589Z,69.20
2019-05-02T22:03:27.470Z,70.00
2019-05-02T22:05:57.001Z,69.90
2019-05-02T22:08:26.473Z,70.20
2019-05-02T22:10:56.250Z,70.30
2019-05-02T22:13:25.561Z,70.50
2019-05-02T22:15:54.944Z,70.40
2019-05-02T22:18:24.343Z,70.60
2019-05-02T22:20:53.894Z,70.80
2019-05-02T22:23:23.360Z,71.30
2019-05-02T22:25:52.791Z,71.30
2019-05-02T22:28:22.231Z,71.70
2019-05-02T22:30:52.190Z,71.90
2019-05-02T22:33:22.756Z,72.40
2019-05-02T22:35:52.460Z,73.00
2019-05-02T22:38:23.639Z,73.40
2019-05-02T22:40:54.845Z,73.80
2019-05-02T22:43:24.274Z,74.10
2019-05-02T22:45:53.626Z,74.50
2019-05-02T22:48:23.105Z,74.70
2019-05-02T22:50:52.731Z,74.80
2019-05-02T22:53:22.114Z,75.10
2019-05-02T22:55:51.771Z,75.30
2019-05-02T22:58:22.204Z,75.40
2019-05-02T23:00:52.296Z,75.20
2019-05-02T23:03:24.195Z,75.30
2019-05-02T23:05:53.738Z,75.50
2019-05-02T23:08:23.111Z,75.70
2019-05-02T23:10:52.470Z,75.80
2019-05-02T23:13:22.013Z,76.10
2019-05-02T23:15:53.040Z,76.00
2019-05-02T23:18:22.832Z,76.10
2019-05-02T23:20:52.678Z,75.80
2019-05-02T23:23:24.197Z,75.50
2019-05-02T23:26:07.043Z,75.60
2019-05-02T23:28:47.402Z,75.80
2019-05-02T23:31:16.766Z,75.50
2019-05-02T23:33:58.420Z,75.30
2019-05-02T23:36:32.544Z,75.50
2019-05-02T23:39:02.951Z,75.70
2019-05-02T23:41:33.950Z,75.60
2019-05-02T23:44:03.331Z,75.80
2019-05-02T23:46:32.680Z,76.00
2019-05-02T23:49:02.204Z,76.00
2019-05-02T23:51:32.158Z,76.60
2019-05-02T23:54:02.080Z,76.90
2019-05-02T23:56:32.431Z,77.00
2019-05-02T23:59:02.741Z,76.90
